sensor_id;sensor_type;location;lat;lon;timestamp;P1;durP1;ratioP1;P2;durP2;ratioP2
15246;SDS011;7726;48.820;9.248;2023-09-19T00:01:21;1.35;;;1.00;;
15246;SDS011;7726;48.820;9.248;2023-09-19T00:03:50;1.00;;;0.93;;
15246;SDS011;7726;48.820;9.248;2023-09-19T00:06:18;1.15;;;0.95;;
15246;SDS011;7726;48.820;9.248;2023-09-19T00:08:45;1.35;;;0.85;;
15246;SDS011;7726;48.820;9.248;2023-09-19T00:11:12;1.05;;;0.90;;
15246;SDS011;7726;48.820;9.248;2023-09-19T00:13:39;0.93;;;0.80;;
15246;SDS011;7726;48.820;9.248;2023-09-19T00:16:08;0.90;;;0.90;;
15246;SDS011;7726;48.820;9.248;2023-09-19T00:18:36;0.90;;;0.70;;
15246;SDS011;7726;48.820;9.248;2023-09-19T00:21:05;0.90;;;0.90;;
15246;SDS011;7726;48.820;9.248;2023-09-19T00:23:32;1.17;;;0.80;;
15246;SDS011;7726;48.820;9.248;2023-09-19T00:26:01;0.80;;;0.80;;
15246;SDS011;7726;48.820;9.248;2023-09-19T00:28:29;0.90;;;0.90;;
15246;SDS011;7726;48.820;9.248;2023-09-19T00:30:56;2.45;;;0.82;;
15246;SDS011;7726;48.820;9.248;2023-09-19T00:33:26;2.38;;;0.82;;
15246;SDS011;7726;48.820;9.248;2023-09-19T00:35:54;0.77;;;0.77;;
15246;SDS011;7726;48.820;9.248;2023-09-19T00:38:24;2.03;;;0.90;;
15246;SDS011;7726;48.820;9.248;2023-09-19T00:40:53;1.73;;;0.90;;
15246;SDS011;7726;48.820;9.248;2023-09-19T00:43:21;1.20;;;0.90;;
15246;SDS011;7726;48.820;9.248;2023-09-19T00:45:49;0.73;;;0.73;;
15246;SDS011;7726;48.820;9.248;2023-09-19T00:48:18;0.93;;;0.82;;
15246;SDS011;7726;48.820;9.248;2023-09-19T00:50:46;0.80;;;0.80;;
15246;SDS011;7726;48.820;9.248;2023-09-19T00:53:15;1.17;;;0.80;;
15246;SDS011;7726;48.820;9.248;2023-09-19T00:55:45;2.65;;;0.95;;
15246;SDS011;7726;48.820;9.248;2023-09-19T00:58:12;1.25;;;0.80;;
15246;SDS011;7726;48.820;9.248;2023-09-19T01:00:40;0.70;;;0.70;;
15246;SDS011;7726;48.820;9.248;2023-09-19T01:03:09;0.88;;;0.80;;
15246;SDS011;7726;48.820;9.248;2023-09-19T01:05:38;0.70;;;0.70;;
15246;SDS011;7726;48.820;9.248;2023-09-19T01:08:05;1.58;;;0.90;;
15246;SDS011;7726;48.820;9.248;2023-09-19T01:10:33;0.85;;;0.60;;
15246;SDS011;7726;48.820;9.248;2023-09-19T01:13:03;3.45;;;0.80;;
15246;SDS011;7726;48.820;9.248;2023-09-19T01:15:35;2.17;;;0.88;;
15246;SDS011;7726;48.820;9.248;2023-09-19T01:18:09;3.92;;;1.10;;
15246;SDS011;7726;48.820;9.248;2023-09-19T01:20:39;0.82;;;0.80;;
15246;SDS011;7726;48.820;9.248;2023-09-19T01:23:11;0.88;;;0.73;;
15246;SDS011;7726;48.820;9.248;2023-09-19T01:28:56;1.58;;;0.80;;
15246;SDS011;7726;48.820;9.248;2023-09-19T01:31:31;0.70;;;0.70;;
15246;SDS011;7726;48.820;9.248;2023-09-19T01:34:01;0.75;;;0.70;;
15246;SDS011;7726;48.820;9.248;2023-09-19T01:36:30;1.73;;;0.60;;
15246;SDS011;7726;48.820;9.248;2023-09-19T01:38:59;1.08;;;0.68;;
15246;SDS011;7726;48.820;9.248;2023-09-19T01:44:17;0.80;;;0.80;;
15246;SDS011;7726;48.820;9.248;2023-09-19T01:46:48;1.52;;;0.90;;
15246;SDS011;7726;48.820;9.248;2023-09-19T01:49:21;0.68;;;0.60;;
15246;SDS011;7726;48.820;9.248;2023-09-19T01:51:51;2.85;;;1.00;;
15246;SDS011;7726;48.820;9.248;2023-09-19T01:54:23;0.63;;;0.60;;
15246;SDS011;7726;48.820;9.248;2023-09-19T01:56:55;1.67;;;0.80;;
15246;SDS011;7726;48.820;9.248;2023-09-19T01:59:28;0.80;;;0.80;;
15246;SDS011;7726;48.820;9.248;2023-09-19T02:02:00;1.17;;;0.70;;
15246;SDS011;7726;48.820;9.248;2023-09-19T02:04:28;0.60;;;0.60;;
15246;SDS011;7726;48.820;9.248;2023-09-19T02:06:55;0.82;;;0.80;;
15246;SDS011;7726;48.820;9.248;2023-09-19T02:09:23;0.70;;;0.70;;
15246;SDS011;7726;48.820;9.248;2023-09-19T02:11:50;1.30;;;0.70;;
15246;SDS011;7726;48.820;9.248;2023-09-19T02:14:17;0.65;;;0.65;;
15246;SDS011;7726;48.820;9.248;2023-09-19T02:16:44;0.98;;;0.75;;
15246;SDS011;7726;48.820;9.248;2023-09-19T02:19:14;0.70;;;0.70;;
15246;SDS011;7726;48.820;9.248;2023-09-19T02:21:42;1.63;;;1.00;;
15246;SDS011;7726;48.820;9.248;2023-09-19T02:24:09;0.77;;;0.77;;
15246;SDS011;7726;48.820;9.248;2023-09-19T02:26:37;0.52;;;0.52;;
15246;SDS011;7726;48.820;9.248;2023-09-19T02:29:04;1.30;;;0.80;;
15246;SDS011;7726;48.820;9.248;2023-09-19T02:31:31;1.30;;;0.82;;
15246;SDS011;7726;48.820;9.248;2023-09-19T02:33:59;0.93;;;0.75;;
15246;SDS011;7726;48.820;9.248;2023-09-19T02:36:27;0.80;;;0.80;;
15246;SDS011;7726;48.820;9.248;2023-09-19T02:38:55;1.05;;;0.95;;
15246;SDS011;7726;48.820;9.248;2023-09-19T02:41:22;1.58;;;0.90;;
15246;SDS011;7726;48.820;9.248;2023-09-19T02:43:49;0.90;;;0.90;;
15246;SDS011;7726;48.820;9.248;2023-09-19T02:46:17;1.27;;;0.88;;
15246;SDS011;7726;48.820;9.248;2023-09-19T02:48:44;1.95;;;0.90;;
15246;SDS011;7726;48.820;9.248;2023-09-19T02:51:12;1.83;;;0.98;;
15246;SDS011;7726;48.820;9.248;2023-09-19T02:53:41;1.70;;;0.77;;
15246;SDS011;7726;48.820;9.248;2023-09-19T02:56:08;2.88;;;0.90;;
15246;SDS011;7726;48.820;9.248;2023-09-19T02:58:38;0.63;;;0.63;;
15246;SDS011;7726;48.820;9.248;2023-09-19T03:01:09;0.70;;;0.70;;
15246;SDS011;7726;48.820;9.248;2023-09-19T03:03:37;0.70;;;0.70;;
15246;SDS011;7726;48.820;9.248;2023-09-19T03:06:06;1.85;;;1.08;;
15246;SDS011;7726;48.820;9.248;2023-09-19T03:08:34;0.80;;;0.80;;
15246;SDS011;7726;48.820;9.248;2023-09-19T03:11:04;0.98;;;0.70;;
15246;SDS011;7726;48.820;9.248;2023-09-19T03:13:33;0.60;;;0.60;;
15246;SDS011;7726;48.820;9.248;2023-09-19T03:16:01;1.27;;;0.70;;
15246;SDS011;7726;48.820;9.248;2023-09-19T03:18:30;0.93;;;0.90;;
15246;SDS011;7726;48.820;9.248;2023-09-19T03:20:58;1.77;;;0.90;;
15246;SDS011;7726;48.820;9.248;2023-09-19T03:23:26;1.00;;;0.82;;
15246;SDS011;7726;48.820;9.248;2023-09-19T03:25:53;1.15;;;0.70;;
15246;SDS011;7726;48.820;9.248;2023-09-19T03:28:22;1.25;;;0.82;;
15246;SDS011;7726;48.820;9.248;2023-09-19T03:30:59;1.25;;;0.95;;
15246;SDS011;7726;48.820;9.248;2023-09-19T03:33:26;0.82;;;0.82;;
15246;SDS011;7726;48.820;9.248;2023-09-19T03:35:56;2.03;;;0.93;;
15246;SDS011;7726;48.820;9.248;2023-09-19T03:38:24;0.70;;;0.70;;
15246;SDS011;7726;48.820;9.248;2023-09-19T03:40:51;2.25;;;1.33;;
15246;SDS011;7726;48.820;9.248;2023-09-19T03:43:18;0.80;;;0.80;;
15246;SDS011;7726;48.820;9.248;2023-09-19T03:45:47;1.05;;;0.70;;
15246;SDS011;7726;48.820;9.248;2023-09-19T03:48:15;1.58;;;0.88;;
15246;SDS011;7726;48.820;9.248;2023-09-19T03:50:43;1.70;;;1.15;;
15246;SDS011;7726;48.820;9.248;2023-09-19T03:53:10;1.45;;;0.68;;
15246;SDS011;7726;48.820;9.248;2023-09-19T03:55:37;1.13;;;1.00;;
15246;SDS011;7726;48.820;9.248;2023-09-19T03:58:04;1.02;;;0.82;;
15246;SDS011;7726;48.820;9.248;2023-09-19T04:00:31;1.10;;;1.05;;
15246;SDS011;7726;48.820;9.248;2023-09-19T04:03:00;0.65;;;0.65;;
15246;SDS011;7726;48.820;9.248;2023-09-19T04:05:34;2.00;;;0.70;;
15246;SDS011;7726;48.820;9.248;2023-09-19T04:08:01;1.67;;;0.75;;
15246;SDS011;7726;48.820;9.248;2023-09-19T04:10:28;1.40;;;0.80;;
15246;SDS011;7726;48.820;9.248;2023-09-19T04:12:56;1.58;;;0.95;;
15246;SDS011;7726;48.820;9.248;2023-09-19T04:15:23;1.00;;;0.88;;
15246;SDS011;7726;48.820;9.248;2023-09-19T04:17:50;2.67;;;1.10;;
15246;SDS011;7726;48.820;9.248;2023-09-19T04:20:19;1.58;;;1.15;;
15246;SDS011;7726;48.820;9.248;2023-09-19T04:22:47;1.58;;;0.98;;
15246;SDS011;7726;48.820;9.248;2023-09-19T04:25:14;0.77;;;0.75;;
15246;SDS011;7726;48.820;9.248;2023-09-19T04:27:41;1.67;;;1.02;;
15246;SDS011;7726;48.820;9.248;2023-09-19T04:30:09;0.90;;;0.90;;
15246;SDS011;7726;48.820;9.248;2023-09-19T04:32:37;1.73;;;1.17;;
15246;SDS011;7726;48.820;9.248;2023-09-19T04:35:05;1.50;;;1.00;;
15246;SDS011;7726;48.820;9.248;2023-09-19T04:37:34;2.42;;;1.30;;
15246;SDS011;7726;48.820;9.248;2023-09-19T04:40:03;1.42;;;1.20;;
15246;SDS011;7726;48.820;9.248;2023-09-19T04:42:31;1.35;;;1.08;;
15246;SDS011;7726;48.820;9.248;2023-09-19T04:44:58;1.15;;;1.02;;
15246;SDS011;7726;48.820;9.248;2023-09-19T04:47:25;1.10;;;1.10;;
15246;SDS011;7726;48.820;9.248;2023-09-19T04:49:53;0.85;;;0.85;;
15246;SDS011;7726;48.820;9.248;2023-09-19T04:52:20;1.95;;;1.13;;
15246;SDS011;7726;48.820;9.248;2023-09-19T04:54:48;3.28;;;1.30;;
15246;SDS011;7726;48.820;9.248;2023-09-19T04:57:15;3.80;;;1.25;;
15246;SDS011;7726;48.820;9.248;2023-09-19T04:59:42;1.35;;;1.10;;
15246;SDS011;7726;48.820;9.248;2023-09-19T05:02:10;4.97;;;1.13;;
15246;SDS011;7726;48.820;9.248;2023-09-19T05:04:37;2.15;;;1.30;;
15246;SDS011;7726;48.820;9.248;2023-09-19T05:07:04;1.40;;;1.10;;
15246;SDS011;7726;48.820;9.248;2023-09-19T05:09:31;1.92;;;1.35;;
15246;SDS011;7726;48.820;9.248;2023-09-19T05:12:01;1.45;;;1.30;;
15246;SDS011;7726;48.820;9.248;2023-09-19T05:14:28;4.35;;;1.52;;
15246;SDS011;7726;48.820;9.248;2023-09-19T05:16:55;1.83;;;1.30;;
15246;SDS011;7726;48.820;9.248;2023-09-19T05:19:22;3.00;;;1.40;;
15246;SDS011;7726;48.820;9.248;2023-09-19T05:21:49;1.40;;;1.30;;
15246;SDS011;7726;48.820;9.248;2023-09-19T05:24:16;1.80;;;1.52;;
15246;SDS011;7726;48.820;9.248;2023-09-19T05:26:43;2.35;;;1.35;;
15246;SDS011;7726;48.820;9.248;2023-09-19T05:29:12;2.50;;;1.30;;
15246;SDS011;7726;48.820;9.248;2023-09-19T05:31:39;3.83;;;1.45;;
15246;SDS011;7726;48.820;9.248;2023-09-19T05:34:08;4.47;;;1.45;;
15246;SDS011;7726;48.820;9.248;2023-09-19T05:36:36;2.22;;;1.40;;
15246;SDS011;7726;48.820;9.248;2023-09-19T05:39:04;2.00;;;1.40;;
15246;SDS011;7726;48.820;9.248;2023-09-19T05:41:34;1.67;;;1.25;;
15246;SDS011;7726;48.820;9.248;2023-09-19T05:44:05;4.75;;;1.48;;
15246;SDS011;7726;48.820;9.248;2023-09-19T05:46:33;1.48;;;1.38;;
15246;SDS011;7726;48.820;9.248;2023-09-19T05:49:01;2.30;;;1.27;;
15246;SDS011;7726;48.820;9.248;2023-09-19T05:51:28;1.35;;;1.25;;
15246;SDS011;7726;48.820;9.248;2023-09-19T05:53:56;1.60;;;1.40;;
15246;SDS011;7726;48.820;9.248;2023-09-19T05:56:23;5.57;;;1.60;;
15246;SDS011;7726;48.820;9.248;2023-09-19T05:58:50;2.42;;;1.58;;
15246;SDS011;7726;48.820;9.248;2023-09-19T06:01:18;1.60;;;1.50;;
15246;SDS011;7726;48.820;9.248;2023-09-19T06:03:46;3.75;;;1.60;;
15246;SDS011;7726;48.820;9.248;2023-09-19T06:06:14;2.15;;;1.10;;
15246;SDS011;7726;48.820;9.248;2023-09-19T06:08:41;1.38;;;1.27;;
15246;SDS011;7726;48.820;9.248;2023-09-19T06:11:09;2.75;;;1.30;;
15246;SDS011;7726;48.820;9.248;2023-09-19T06:13:37;3.60;;;1.70;;
15246;SDS011;7726;48.820;9.248;2023-09-19T06:16:05;2.85;;;1.52;;
15246;SDS011;7726;48.820;9.248;2023-09-19T06:18:34;3.75;;;1.73;;
15246;SDS011;7726;48.820;9.248;2023-09-19T06:21:03;3.38;;;1.60;;
15246;SDS011;7726;48.820;9.248;2023-09-19T06:23:32;2.92;;;1.77;;
15246;SDS011;7726;48.820;9.248;2023-09-19T06:26:00;2.67;;;1.70;;
15246;SDS011;7726;48.820;9.248;2023-09-19T06:28:28;3.38;;;1.50;;
15246;SDS011;7726;48.820;9.248;2023-09-19T06:30:55;2.85;;;1.70;;
15246;SDS011;7726;48.820;9.248;2023-09-19T06:33:23;4.53;;;2.13;;
15246;SDS011;7726;48.820;9.248;2023-09-19T06:35:50;5.55;;;1.92;;
15246;SDS011;7726;48.820;9.248;2023-09-19T06:38:25;3.50;;;1.77;;
15246;SDS011;7726;48.820;9.248;2023-09-19T06:40:53;5.00;;;1.80;;
15246;SDS011;7726;48.820;9.248;2023-09-19T06:43:20;3.70;;;2.08;;
15246;SDS011;7726;48.820;9.248;2023-09-19T06:45:48;5.53;;;1.90;;
15246;SDS011;7726;48.820;9.248;2023-09-19T06:48:16;4.88;;;1.92;;
15246;SDS011;7726;48.820;9.248;2023-09-19T06:50:44;4.40;;;2.25;;
15246;SDS011;7726;48.820;9.248;2023-09-19T06:53:13;3.95;;;2.00;;
15246;SDS011;7726;48.820;9.248;2023-09-19T06:55:41;6.63;;;2.40;;
15246;SDS011;7726;48.820;9.248;2023-09-19T06:58:09;1.60;;;1.45;;
15246;SDS011;7726;48.820;9.248;2023-09-19T07:00:36;3.60;;;1.70;;
15246;SDS011;7726;48.820;9.248;2023-09-19T07:03:04;3.15;;;1.60;;
15246;SDS011;7726;48.820;9.248;2023-09-19T07:05:33;2.55;;;1.92;;
15246;SDS011;7726;48.820;9.248;2023-09-19T07:08:03;4.15;;;1.70;;
15246;SDS011;7726;48.820;9.248;2023-09-19T07:10:31;4.50;;;1.77;;
15246;SDS011;7726;48.820;9.248;2023-09-19T07:13:00;2.70;;;2.05;;
15246;SDS011;7726;48.820;9.248;2023-09-19T07:15:27;2.45;;;1.73;;
15246;SDS011;7726;48.820;9.248;2023-09-19T07:17:55;3.17;;;2.15;;
15246;SDS011;7726;48.820;9.248;2023-09-19T07:20:23;3.00;;;2.00;;
15246;SDS011;7726;48.820;9.248;2023-09-19T07:22:51;2.58;;;1.63;;
15246;SDS011;7726;48.820;9.248;2023-09-19T07:25:19;3.65;;;1.80;;
15246;SDS011;7726;48.820;9.248;2023-09-19T07:27:46;6.22;;;1.70;;
15246;SDS011;7726;48.820;9.248;2023-09-19T07:30:15;3.60;;;1.60;;
15246;SDS011;7726;48.820;9.248;2023-09-19T07:32:42;2.33;;;1.52;;
15246;SDS011;7726;48.820;9.248;2023-09-19T07:35:09;3.72;;;1.85;;
15246;SDS011;7726;48.820;9.248;2023-09-19T07:37:37;2.42;;;1.90;;
15246;SDS011;7726;48.820;9.248;2023-09-19T07:40:04;3.00;;;2.03;;
15246;SDS011;7726;48.820;9.248;2023-09-19T07:42:32;1.98;;;1.50;;
15246;SDS011;7726;48.820;9.248;2023-09-19T07:45:02;1.85;;;1.48;;
15246;SDS011;7726;48.820;9.248;2023-09-19T07:47:30;4.88;;;1.50;;
15246;SDS011;7726;48.820;9.248;2023-09-19T07:49:57;2.17;;;1.50;;
15246;SDS011;7726;48.820;9.248;2023-09-19T07:52:26;3.55;;;2.10;;
15246;SDS011;7726;48.820;9.248;2023-09-19T07:54:54;6.95;;;2.28;;
15246;SDS011;7726;48.820;9.248;2023-09-19T07:57:22;2.53;;;1.60;;
15246;SDS011;7726;48.820;9.248;2023-09-19T07:59:49;1.95;;;1.40;;
15246;SDS011;7726;48.820;9.248;2023-09-19T08:02:17;2.20;;;1.50;;
15246;SDS011;7726;48.820;9.248;2023-09-19T08:04:45;3.28;;;1.77;;
15246;SDS011;7726;48.820;9.248;2023-09-19T08:07:12;4.53;;;1.70;;
15246;SDS011;7726;48.820;9.248;2023-09-19T08:09:40;4.20;;;1.70;;
15246;SDS011;7726;48.820;9.248;2023-09-19T08:12:11;2.70;;;1.67;;
15246;SDS011;7726;48.820;9.248;2023-09-19T08:14:39;2.03;;;1.80;;
15246;SDS011;7726;48.820;9.248;2023-09-19T08:17:07;2.85;;;1.65;;
15246;SDS011;7726;48.820;9.248;2023-09-19T08:19:34;2.88;;;1.50;;
15246;SDS011;7726;48.820;9.248;2023-09-19T08:22:07;1.38;;;1.10;;
15246;SDS011;7726;48.820;9.248;2023-09-19T08:24:35;1.98;;;1.50;;
15246;SDS011;7726;48.820;9.248;2023-09-19T08:27:03;2.75;;;1.60;;
15246;SDS011;7726;48.820;9.248;2023-09-19T08:29:34;1.75;;;1.50;;
15246;SDS011;7726;48.820;9.248;2023-09-19T08:32:01;1.95;;;1.40;;
15246;SDS011;7726;48.820;9.248;2023-09-19T08:34:29;1.95;;;1.55;;
15246;SDS011;7726;48.820;9.248;2023-09-19T08:36:59;1.23;;;1.20;;
15246;SDS011;7726;48.820;9.248;2023-09-19T08:39:27;1.55;;;1.45;;
15246;SDS011;7726;48.820;9.248;2023-09-19T08:41:59;2.22;;;1.25;;
15246;SDS011;7726;48.820;9.248;2023-09-19T08:44:26;1.73;;;1.30;;
15246;SDS011;7726;48.820;9.248;2023-09-19T08:46:55;4.47;;;1.40;;
15246;SDS011;7726;48.820;9.248;2023-09-19T08:49:27;1.55;;;1.00;;
15246;SDS011;7726;48.820;9.248;2023-09-19T08:52:01;3.22;;;1.50;;
15246;SDS011;7726;48.820;9.248;2023-09-19T08:54:35;2.10;;;1.45;;
15246;SDS011;7726;48.820;9.248;2023-09-19T08:57:05;1.90;;;1.25;;
15246;SDS011;7726;48.820;9.248;2023-09-19T08:59:33;1.05;;;1.00;;
15246;SDS011;7726;48.820;9.248;2023-09-19T09:02:06;1.02;;;1.00;;
15246;SDS011;7726;48.820;9.248;2023-09-19T09:04:37;1.65;;;1.30;;
15246;SDS011;7726;48.820;9.248;2023-09-19T09:07:05;1.27;;;1.17;;
15246;SDS011;7726;48.820;9.248;2023-09-19T09:09:34;1.58;;;1.20;;
15246;SDS011;7726;48.820;9.248;2023-09-19T09:12:01;3.33;;;1.30;;
15246;SDS011;7726;48.820;9.248;2023-09-19T09:14:29;1.33;;;1.23;;
15246;SDS011;7726;48.820;9.248;2023-09-19T09:16:56;3.47;;;1.25;;
15246;SDS011;7726;48.820;9.248;2023-09-19T09:19:24;2.33;;;1.08;;
15246;SDS011;7726;48.820;9.248;2023-09-19T09:21:51;1.30;;;1.20;;
15246;SDS011;7726;48.820;9.248;2023-09-19T09:24:27;1.73;;;1.17;;
15246;SDS011;7726;48.820;9.248;2023-09-19T09:26:56;1.65;;;1.10;;
15246;SDS011;7726;48.820;9.248;2023-09-19T09:29:43;1.20;;;1.10;;
15246;SDS011;7726;48.820;9.248;2023-09-19T09:32:21;1.27;;;1.17;;
15246;SDS011;7726;48.820;9.248;2023-09-19T09:34:49;4.95;;;1.65;;
15246;SDS011;7726;48.820;9.248;2023-09-19T09:37:17;1.65;;;1.23;;
15246;SDS011;7726;48.820;9.248;2023-09-19T09:39:52;1.30;;;1.20;;
15246;SDS011;7726;48.820;9.248;2023-09-19T09:45:14;1.05;;;1.00;;
15246;SDS011;7726;48.820;9.248;2023-09-19T09:47:43;1.50;;;1.25;;
15246;SDS011;7726;48.820;9.248;2023-09-19T09:50:23;1.00;;;1.00;;
15246;SDS011;7726;48.820;9.248;2023-09-19T09:52:54;1.63;;;1.20;;
15246;SDS011;7726;48.820;9.248;2023-09-19T09:55:26;1.75;;;1.17;;
15246;SDS011;7726;48.820;9.248;2023-09-19T09:58:02;1.15;;;0.95;;
15246;SDS011;7726;48.820;9.248;2023-09-19T10:00:53;1.33;;;1.10;;
15246;SDS011;7726;48.820;9.248;2023-09-19T10:03:30;1.13;;;0.95;;
15246;SDS011;7726;48.820;9.248;2023-09-19T10:05:59;1.52;;;1.20;;
15246;SDS011;7726;48.820;9.248;2023-09-19T10:08:34;1.90;;;1.20;;
15246;SDS011;7726;48.820;9.248;2023-09-19T10:11:11;1.38;;;1.27;;
15246;SDS011;7726;48.820;9.248;2023-09-19T10:13:41;1.05;;;1.00;;
15246;SDS011;7726;48.820;9.248;2023-09-19T10:16:12;1.30;;;1.20;;
15246;SDS011;7726;48.820;9.248;2023-09-19T10:18:40;2.05;;;1.30;;
15246;SDS011;7726;48.820;9.248;2023-09-19T10:21:08;0.98;;;0.98;;
15246;SDS011;7726;48.820;9.248;2023-09-19T10:23:36;1.13;;;1.02;;
15246;SDS011;7726;48.820;9.248;2023-09-19T10:26:05;2.42;;;1.35;;
15246;SDS011;7726;48.820;9.248;2023-09-19T10:28:34;1.15;;;1.05;;
15246;SDS011;7726;48.820;9.248;2023-09-19T10:31:02;1.17;;;0.90;;
15246;SDS011;7726;48.820;9.248;2023-09-19T10:33:34;2.65;;;1.75;;
15246;SDS011;7726;48.820;9.248;2023-09-19T10:36:03;2.60;;;1.20;;
15246;SDS011;7726;48.820;9.248;2023-09-19T10:38:31;1.52;;;1.20;;
15246;SDS011;7726;48.820;9.248;2023-09-19T10:41:00;1.88;;;1.33;;
15246;SDS011;7726;48.820;9.248;2023-09-19T10:43:29;1.05;;;0.98;;
15246;SDS011;7726;48.820;9.248;2023-09-19T10:46:00;1.80;;;1.48;;
15246;SDS011;7726;48.820;9.248;2023-09-19T10:48:29;1.73;;;1.38;;
15246;SDS011;7726;48.820;9.248;2023-09-19T10:50:58;2.88;;;1.13;;
15246;SDS011;7726;48.820;9.248;2023-09-19T10:53:29;2.78;;;1.23;;
15246;SDS011;7726;48.820;9.248;2023-09-19T10:55:58;2.15;;;1.10;;
15246;SDS011;7726;48.820;9.248;2023-09-19T10:58:28;1.10;;;0.98;;
15246;SDS011;7726;48.820;9.248;2023-09-19T11:00:55;1.30;;;1.20;;
15246;SDS011;7726;48.820;9.248;2023-09-19T11:03:27;1.60;;;1.17;;
15246;SDS011;7726;48.820;9.248;2023-09-19T11:06:07;1.00;;;1.00;;
15246;SDS011;7726;48.820;9.248;2023-09-19T11:08:54;2.90;;;1.00;;
15246;SDS011;7726;48.820;9.248;2023-09-19T11:11:45;2.05;;;1.13;;
15246;SDS011;7726;48.820;9.248;2023-09-19T11:14:17;0.98;;;0.75;;
15246;SDS011;7726;48.820;9.248;2023-09-19T11:25:45;1.63;;;1.20;;
15246;SDS011;7726;48.820;9.248;2023-09-19T11:36:50;1.15;;;1.05;;
15246;SDS011;7726;48.820;9.248;2023-09-19T11:39:24;2.88;;;1.10;;
15246;SDS011;7726;48.820;9.248;2023-09-19T11:41:53;1.95;;;1.20;;
15246;SDS011;7726;48.820;9.248;2023-09-19T11:44:31;0.90;;;0.90;;
15246;SDS011;7726;48.820;9.248;2023-09-19T11:47:00;1.35;;;0.95;;
15246;SDS011;7726;48.820;9.248;2023-09-19T11:49:29;3.65;;;1.05;;
15246;SDS011;7726;48.820;9.248;2023-09-19T11:51:57;1.10;;;0.90;;
15246;SDS011;7726;48.820;9.248;2023-09-19T11:54:27;1.45;;;1.10;;
15246;SDS011;7726;48.820;9.248;2023-09-19T11:56:58;0.80;;;0.80;;
15246;SDS011;7726;48.820;9.248;2023-09-19T11:59:26;4.55;;;1.20;;
15246;SDS011;7726;48.820;9.248;2023-09-19T12:01:55;2.90;;;0.95;;
15246;SDS011;7726;48.820;9.248;2023-09-19T12:04:36;1.10;;;1.00;;
15246;SDS011;7726;48.820;9.248;2023-09-19T12:07:04;1.17;;;0.90;;
15246;SDS011;7726;48.820;9.248;2023-09-19T12:09:35;2.38;;;1.02;;
15246;SDS011;7726;48.820;9.248;2023-09-19T12:12:04;1.27;;;1.15;;
15246;SDS011;7726;48.820;9.248;2023-09-19T12:14:31;3.25;;;1.10;;
15246;SDS011;7726;48.820;9.248;2023-09-19T12:16:58;3.92;;;1.05;;
15246;SDS011;7726;48.820;9.248;2023-09-19T12:19:28;2.03;;;1.05;;
15246;SDS011;7726;48.820;9.248;2023-09-19T12:21:59;2.45;;;0.73;;
15246;SDS011;7726;48.820;9.248;2023-09-19T12:24:30;1.13;;;0.90;;
15246;SDS011;7726;48.820;9.248;2023-09-19T12:27:01;1.48;;;1.00;;
15246;SDS011;7726;48.820;9.248;2023-09-19T12:29:31;1.73;;;1.10;;
15246;SDS011;7726;48.820;9.248;2023-09-19T12:31:59;1.40;;;1.23;;
15246;SDS011;7726;48.820;9.248;2023-09-19T12:34:29;2.70;;;1.02;;
15246;SDS011;7726;48.820;9.248;2023-09-19T12:39:48;1.77;;;1.00;;
15246;SDS011;7726;48.820;9.248;2023-09-19T12:42:17;2.53;;;1.45;;
15246;SDS011;7726;48.820;9.248;2023-09-19T12:44:46;2.75;;;1.30;;
15246;SDS011;7726;48.820;9.248;2023-09-19T12:47:14;2.38;;;1.00;;
15246;SDS011;7726;48.820;9.248;2023-09-19T12:52:34;1.45;;;1.15;;
15246;SDS011;7726;48.820;9.248;2023-09-19T12:55:01;4.53;;;1.20;;
15246;SDS011;7726;48.820;9.248;2023-09-19T12:57:30;2.58;;;1.30;;
15246;SDS011;7726;48.820;9.248;2023-09-19T13:00:00;3.30;;;1.80;;
15246;SDS011;7726;48.820;9.248;2023-09-19T13:02:30;1.50;;;1.20;;
15246;SDS011;7726;48.820;9.248;2023-09-19T13:04:58;1.13;;;0.98;;
15246;SDS011;7726;48.820;9.248;2023-09-19T13:07:41;1.75;;;1.10;;
15246;SDS011;7726;48.820;9.248;2023-09-19T13:10:10;1.23;;;0.80;;
15246;SDS011;7726;48.820;9.248;2023-09-19T13:12:40;1.15;;;1.00;;
15246;SDS011;7726;48.820;9.248;2023-09-19T13:15:11;1.35;;;1.23;;
15246;SDS011;7726;48.820;9.248;2023-09-19T13:17:44;1.83;;;0.93;;
15246;SDS011;7726;48.820;9.248;2023-09-19T13:20:20;1.33;;;1.23;;
15246;SDS011;7726;48.820;9.248;2023-09-19T13:22:49;1.30;;;1.20;;
15246;SDS011;7726;48.820;9.248;2023-09-19T13:25:19;2.20;;;1.30;;
15246;SDS011;7726;48.820;9.248;2023-09-19T13:27:47;1.55;;;1.25;;
15246;SDS011;7726;48.820;9.248;2023-09-19T13:30:17;1.15;;;1.05;;
15246;SDS011;7726;48.820;9.248;2023-09-19T13:32:45;1.35;;;1.00;;
15246;SDS011;7726;48.820;9.248;2023-09-19T13:35:13;2.00;;;1.40;;
15246;SDS011;7726;48.820;9.248;2023-09-19T13:37:40;1.52;;;1.40;;
15246;SDS011;7726;48.820;9.248;2023-09-19T13:40:08;1.20;;;1.10;;
15246;SDS011;7726;48.820;9.248;2023-09-19T13:42:36;1.55;;;1.08;;
15246;SDS011;7726;48.820;9.248;2023-09-19T13:45:03;1.75;;;1.25;;
15246;SDS011;7726;48.820;9.248;2023-09-19T13:47:32;1.40;;;1.30;;
15246;SDS011;7726;48.820;9.248;2023-09-19T13:50:02;1.90;;;1.40;;
15246;SDS011;7726;48.820;9.248;2023-09-19T13:52:29;1.98;;;1.20;;
15246;SDS011;7726;48.820;9.248;2023-09-19T13:54:57;1.25;;;1.00;;
15246;SDS011;7726;48.820;9.248;2023-09-19T13:57:24;1.70;;;1.27;;
15246;SDS011;7726;48.820;9.248;2023-09-19T13:59:52;1.00;;;1.00;;
15246;SDS011;7726;48.820;9.248;2023-09-19T14:02:20;1.40;;;1.20;;
15246;SDS011;7726;48.820;9.248;2023-09-19T14:04:49;1.10;;;1.10;;
15246;SDS011;7726;48.820;9.248;2023-09-19T14:07:16;1.25;;;1.10;;
15246;SDS011;7726;48.820;9.248;2023-09-19T14:09:45;1.85;;;1.20;;
15246;SDS011;7726;48.820;9.248;2023-09-19T14:12:12;3.40;;;1.23;;
15246;SDS011;7726;48.820;9.248;2023-09-19T14:14:38;1.25;;;1.10;;
15246;SDS011;7726;48.820;9.248;2023-09-19T14:17:06;2.17;;;1.30;;
15246;SDS011;7726;48.820;9.248;2023-09-19T14:19:34;3.42;;;1.20;;
15246;SDS011;7726;48.820;9.248;2023-09-19T14:22:03;1.20;;;1.10;;
15246;SDS011;7726;48.820;9.248;2023-09-19T14:24:32;3.95;;;1.23;;
15246;SDS011;7726;48.820;9.248;2023-09-19T14:27:00;1.25;;;1.15;;
15246;SDS011;7726;48.820;9.248;2023-09-19T14:29:29;2.78;;;1.15;;
15246;SDS011;7726;48.820;9.248;2023-09-19T14:31:56;1.45;;;1.30;;
15246;SDS011;7726;48.820;9.248;2023-09-19T14:34:23;1.40;;;1.30;;
15246;SDS011;7726;48.820;9.248;2023-09-19T14:36:51;1.27;;;1.17;;
15246;SDS011;7726;48.820;9.248;2023-09-19T14:39:20;0.90;;;0.90;;
15246;SDS011;7726;48.820;9.248;2023-09-19T14:41:48;1.85;;;1.25;;
15246;SDS011;7726;48.820;9.248;2023-09-19T14:44:15;2.25;;;1.30;;
15246;SDS011;7726;48.820;9.248;2023-09-19T14:46:42;2.85;;;1.20;;
15246;SDS011;7726;48.820;9.248;2023-09-19T14:49:10;1.35;;;1.15;;
15246;SDS011;7726;48.820;9.248;2023-09-19T14:51:37;2.90;;;1.42;;
15246;SDS011;7726;48.820;9.248;2023-09-19T14:54:05;1.65;;;1.40;;
15246;SDS011;7726;48.820;9.248;2023-09-19T14:56:34;1.45;;;1.35;;
15246;SDS011;7726;48.820;9.248;2023-09-19T14:59:02;2.47;;;1.20;;
15246;SDS011;7726;48.820;9.248;2023-09-19T15:01:29;1.25;;;1.15;;
15246;SDS011;7726;48.820;9.248;2023-09-19T15:03:57;1.42;;;1.27;;
15246;SDS011;7726;48.820;9.248;2023-09-19T15:06:25;1.30;;;1.20;;
15246;SDS011;7726;48.820;9.248;2023-09-19T15:08:53;1.10;;;1.00;;
15246;SDS011;7726;48.820;9.248;2023-09-19T15:11:20;1.27;;;1.17;;
15246;SDS011;7726;48.820;9.248;2023-09-19T15:13:50;1.40;;;1.10;;
15246;SDS011;7726;48.820;9.248;2023-09-19T15:16:18;1.13;;;1.10;;
15246;SDS011;7726;48.820;9.248;2023-09-19T15:18:45;0.98;;;0.93;;
15246;SDS011;7726;48.820;9.248;2023-09-19T15:21:13;1.33;;;1.23;;
15246;SDS011;7726;48.820;9.248;2023-09-19T15:23:41;1.23;;;1.13;;
15246;SDS011;7726;48.820;9.248;2023-09-19T15:26:09;2.45;;;1.00;;
15246;SDS011;7726;48.820;9.248;2023-09-19T15:28:37;1.25;;;1.15;;
15246;SDS011;7726;48.820;9.248;2023-09-19T15:31:06;1.83;;;1.20;;
15246;SDS011;7726;48.820;9.248;2023-09-19T15:33:34;2.28;;;1.00;;
15246;SDS011;7726;48.820;9.248;2023-09-19T15:36:02;1.13;;;1.00;;
15246;SDS011;7726;48.820;9.248;2023-09-19T15:38:29;1.65;;;1.10;;
15246;SDS011;7726;48.820;9.248;2023-09-19T15:40:57;1.73;;;0.90;;
15246;SDS011;7726;48.820;9.248;2023-09-19T15:43:25;1.88;;;1.02;;